Time;durP1;ratioP1;P1;durP2;ratioP2;P2;SDS_P1;SDS_P2;PMS_P1;PMS_P2;Temp;Humidity;BMP_temperature;BMP_pressure;BME280_temperature;BME280_humidity;BME280_pressure;Samples;Min_cycle;Max_cycle;Signal;HPM_P1;HPM_P2
2021/05/26 00:31:10;;;;;;;15.87;13.80;;;;;;;10.36;100.00;100344.53;4984589;28;20225;-79
2021/05/26 00:33:41;;;;;;;14.40;13.00;;;;;;;10.28;100.00;100342.41;4956619;29;20261;-78
2021/05/26 00:36:06;;;;;;;16.30;14.60;;;;;;;10.42;100.00;100345.03;4957348;28;20235;-79
2021/05/26 00:38:34;;;;;;;16.30;14.60;;;;;;;10.44;100.00;100337.44;4926125;29;20194;-78
2021/05/26 00:41:05;;;;;;;16.27;14.53;;;;;;;10.56;100.00;100340.63;4958651;28;20305;-78
2021/05/26 00:43:32;;;;;;;16.40;14.70;;;;;;;10.52;100.00;100334.13;4941428;29;20183;-80
2021/05/26 00:46:00;;;;;;;18.30;14.80;;;;;;;10.46;100.00;100343.38;4947531;28;20238;-80
2021/05/26 00:48:28;;;;;;;17.10;15.30;;;;;;;10.40;100.00;100332.81;4941510;29;20250;-79
2021/05/26 00:50:56;;;;;;;16.73;14.10;;;;;;;10.42;100.00;100339.63;4955530;28;20227;-80
2021/05/26 00:53:24;;;;;;;16.27;14.67;;;;;;;10.42;100.00;100336.06;4969526;29;20214;-80
2021/05/26 00:55:55;;;;;;;16.27;14.03;;;;;;;10.44;100.00;100340.16;4940773;29;20223;-78
2021/05/26 00:58:24;;;;;;;16.87;15.10;;;;;;;10.50;100.00;100333.59;4940490;29;20281;-80
2021/05/26 01:00:55;;;;;;;16.43;14.73;;;;;;;10.39;100.00;100334.72;4970520;28;20214;-79
2021/05/26 01:03:22;;;;;;;17.40;15.27;;;;;;;10.44;100.00;100329.28;4959934;28;20179;-79
2021/05/26 01:05:47;;;;;;;17.17;15.37;;;;;;;10.46;100.00;100329.81;4942389;28;20766;-79
2021/05/26 01:08:13;;;;;;;15.67;14.07;;;;;;;10.41;100.00;100321.69;4960007;28;20186;-79
2021/05/26 01:10:39;;;;;;;15.67;14.07;;;;;;;10.46;100.00;100329.81;4974810;28;20273;-79
2021/05/26 01:13:09;;;;;;;15.83;14.23;;;;;;;10.37;100.00;100329.88;4973738;28;20218;-79
2021/05/26 01:15:36;;;;;;;15.63;12.83;;;;;;;10.42;100.00;100317.91;4957986;28;20222;-79
2021/05/26 01:18:25;;;;;;;14.67;13.27;;;;;;;10.38;100.00;100327.69;4974826;28;20535;-80
2021/05/26 01:20:55;;;;;;;15.23;13.23;;;;;;;10.55;100.00;100321.88;4975244;28;20218;-80
2021/05/26 01:23:27;;;;;;;15.10;12.63;;;;;;;10.41;100.00;100327.13;4958210;28;20213;-79
2021/05/26 01:26:00;;;;;;;13.53;11.67;;;;;;;10.46;100.00;100324.38;4943363;28;20260;-79
2021/05/26 01:28:29;;;;;;;13.03;11.67;;;;;;;10.31;100.00;100323.66;4957737;28;20210;-79
2021/05/26 01:30:57;;;;;;;12.47;11.17;;;;;;;10.35;100.00;100321.16;4958965;28;20229;-78
2021/05/26 01:33:28;;;;;;;13.27;11.97;;;;;;;10.33;100.00;100324.19;4973764;28;20209;-78
2021/05/26 01:35:56;;;;;;;14.07;12.60;;;;;;;10.45;100.00;100309.16;4973998;28;20218;-78
2021/05/26 01:38:23;;;;;;;12.63;11.30;;;;;;;10.44;100.00;100321.16;4974359;28;20178;-79
2021/05/26 01:40:49;;;;;;;13.60;12.20;;;;;;;10.39;100.00;100323.88;4974347;28;20233;-79
2021/05/26 01:43:15;;;;;;;12.83;11.50;;;;;;;10.40;100.00;100324.69;4957477;28;20726;-78
2021/05/26 01:45:41;;;;;;;12.60;11.30;;;;;;;10.31;100.00;100315.50;4957608;28;20790;-79
2021/05/26 01:48:09;;;;;;;12.17;10.73;;;;;;;10.25;100.00;100310.38;4941869;28;20273;-79
2021/05/26 01:50:36;;;;;;;12.33;11.03;;;;;;;10.29;100.00;100311.44;4942223;28;20252;-80
2021/05/26 01:53:07;;;;;;;13.07;10.90;;;;;;;10.29;100.00;100316.88;4957141;28;20238;-79
2021/05/26 01:55:38;;;;;;;12.23;10.93;;;;;;;10.30;100.00;100310.34;4957802;28;20237;-79
2021/05/26 01:58:06;;;;;;;12.10;10.90;;;;;;;10.33;100.00;100309.78;4974059;28;20284;-78
2021/05/26 02:00:41;;;;;;;11.90;10.70;;;;;;;10.25;100.00;100310.38;4959751;28;20601;-79
2021/05/26 02:03:12;;;;;;;11.97;10.77;;;;;;;10.33;100.00;100304.34;4947299;28;20193;-79
2021/05/26 02:05:43;;;;;;;12.73;11.43;;;;;;;10.23;100.00;100309.84;4963892;28;20230;-79
2021/05/26 02:08:10;;;;;;;11.60;10.40;;;;;;;10.31;100.00;100310.09;4982583;28;20270;-78
2021/05/26 02:13:23;;;;;;;14.10;11.13;;;;;;;10.35;100.00;100299.44;4946201;28;20692;-78
2021/05/26 02:15:53;;;;;;;12.27;11.07;;;;;;;10.34;100.00;100303.28;4970392;28;20218;-78
2021/05/26 02:18:21;;;;;;;13.13;11.80;;;;;;;10.33;100.00;100290.78;4939539;28;20186;-77
2021/05/26 02:20:47;;;;;;;13.07;11.20;;;;;;;10.37;100.00;100290.75;4940544;28;20743;-78
2021/05/26 02:23:15;;;;;;;13.40;11.83;;;;;;;10.28;100.00;100297.06;4948938;28;20515;-77
2021/05/26 02:25:43;;;;;;;12.87;11.67;;;;;;;10.32;100.00;100308.97;4955272;28;20222;-77
2021/05/26 02:28:09;;;;;;;13.70;12.30;;;;;;;10.29;100.00;100298.66;4988076;28;20174;-77
2021/05/26 02:30:37;;;;;;;12.90;11.60;;;;;;;10.48;100.00;100305.09;4973179;28;20274;-77
2021/05/26 02:33:03;;;;;;;12.90;11.50;;;;;;;10.51;100.00;100293.66;4965946;28;20206;-77
2021/05/26 02:35:31;;;;;;;13.07;11.77;;;;;;;10.44;100.00;100298.63;4972110;28;20735;-77
2021/05/26 02:37:57;;;;;;;13.30;11.87;;;;;;;10.37;100.00;100304.34;4973294;28;20771;-78
2021/05/26 02:40:26;;;;;;;12.77;11.47;;;;;;;10.34;100.00;100298.66;4973559;28;20664;-77
2021/05/26 02:42:56;;;;;;;13.63;12.20;;;;;;;10.29;100.00;100292.44;4956075;28;20205;-78
2021/05/26 02:45:24;;;;;;;14.67;13.17;;;;;;;10.34;100.00;100303.28;4956941;28;20297;-78
2021/05/26 02:47:52;;;;;;;13.63;12.23;;;;;;;10.41;100.00;100304.59;4955713;28;20233;-77
2021/05/26 02:50:17;;;;;;;13.80;12.50;;;;;;;10.37;100.00;100302.72;4956091;28;20206;-78
2021/05/26 02:52:46;;;;;;;14.93;12.57;;;;;;;10.31;100.00;100298.41;4972166;28;20706;-76
2021/05/26 02:55:15;;;;;;;13.43;12.10;;;;;;;10.33;100.00;100301.63;4989309;28;20281;-78
2021/05/26 02:58:00;;;;;;;13.97;11.90;;;;;;;10.20;100.00;100302.25;4958527;28;20182;-79
2021/05/26 03:00:57;;;;;;;12.90;11.67;;;;;;;10.32;100.00;100300.03;4984009;28;20207;-78
2021/05/26 03:03:49;;;;;;;12.70;11.40;;;;;;;10.12;100.00;100294.69;4927005;29;20222;-77
2021/05/26 03:06:22;;;;;;;12.63;11.37;;;;;;;10.26;100.00;100298.44;4923473;29;20868;-79
2021/05/26 03:08:56;;;;;;;12.90;11.13;;;;;;;10.26;100.00;100299.25;4936878;29;20308;-78
2021/05/26 03:11:29;;;;;;;13.90;11.70;;;;;;;10.44;100.00;100294.00;4941854;28;20593;-79
2021/05/26 03:14:11;;;;;;;12.87;11.57;;;;;;;10.27;100.00;100300.84;4967912;28;20300;-78
2021/05/26 03:16:41;;;;;;;13.67;12.27;;;;;;;10.26;100.00;100301.16;4980277;28;20226;-78
2021/05/26 03:19:09;;;;;;;14.03;12.60;;;;;;;10.24;100.00;100303.34;4985539;28;20624;-78
2021/05/26 03:21:37;;;;;;;16.57;12.67;;;;;;;10.37;100.00;100294.59;4973529;28;20225;-78
2021/05/26 03:24:31;;;;;;;13.60;12.03;;;;;;;10.32;100.00;100305.47;4966926;28;20212;-78
2021/05/26 03:26:59;;;;;;;14.33;12.83;;;;;;;10.11;100.00;100287.66;4986419;28;20250;-78
2021/05/26 03:29:27;;;;;;;14.77;12.87;;;;;;;10.35;100.00;100294.03;4960518;28;20284;-79
2021/05/26 03:31:53;;;;;;;15.27;12.73;;;;;;;10.36;100.00;100307.31;4999197;28;20238;-78
2021/05/26 03:34:23;;;;;;;14.97;12.40;;;;;;;10.31;100.00;100284.81;4976015;28;20213;-78
2021/05/26 03:36:54;;;;;;;15.10;13.23;;;;;;;10.33;100.00;100301.63;4960406;28;20256;-79
2021/05/26 03:39:21;;;;;;;13.83;12.33;;;;;;;10.31;100.00;100301.94;4961251;28;20186;-78
2021/05/26 03:41:46;;;;;;;13.80;12.50;;;;;;;10.31;100.00;100295.69;4973241;28;20237;-77
2021/05/26 03:44:17;;;;;;;15.53;13.00;;;;;;;10.29;100.00;100295.94;4977948;28;20218;-78
2021/05/26 03:46:42;;;;;;;13.40;12.00;;;;;;;10.26;100.00;100295.72;4962630;28;20214;-79
2021/05/26 03:49:09;;;;;;;13.47;12.07;;;;;;;10.37;100.00;100289.16;4955555;28;20186;-77
2021/05/26 03:51:37;;;;;;;14.67;12.80;;;;;;;10.37;100.00;100291.88;4978344;28;20252;-79
2021/05/26 03:54:09;;;;;;;14.67;13.20;;;;;;;10.42;100.00;100285.31;4968019;28;20920;-78
2021/05/26 03:56:45;;;;;;;15.07;13.13;;;;;;;10.39;100.00;100280.44;4939987;28;20352;-78
2021/05/26 03:59:15;;;;;;;14.60;12.87;;;;;;;10.35;100.00;100283.16;4979170;28;20187;-78
2021/05/26 04:01:50;;;;;;;14.67;13.27;;;;;;;10.36;100.00;100284.81;4954393;28;20774;-78
2021/05/26 04:04:19;;;;;;;15.93;13.37;;;;;;;10.41;100.00;100283.69;4951909;29;20211;-78
2021/05/26 04:06:47;;;;;;;15.63;14.00;;;;;;;10.37;100.00;100281.00;4925046;29;20879;-78
2021/05/26 04:09:20;;;;;;;15.63;13.97;;;;;;;10.39;100.00;100275.00;4941105;29;20197;-78
2021/05/26 04:11:51;;;;;;;17.50;13.63;;;;;;;10.36;100.00;100282.09;4971080;28;20274;-78
2021/05/26 04:14:35;;;;;;;15.50;13.57;;;;;;;10.44;100.00;100283.13;4943558;29;20234;-78
2021/05/26 04:17:25;;;;;;;16.73;14.13;;;;;;;10.43;100.00;100275.25;4928119;29;20242;-78
2021/05/26 04:20:10;;;;;;;14.60;13.10;;;;;;;10.45;100.00;100273.88;4943647;28;20201;-78
2021/05/26 04:22:39;;;;;;;15.70;14.00;;;;;;;10.47;100.00;100277.13;4923117;29;20197;-78
2021/05/26 04:25:09;;;;;;;15.93;14.20;;;;;;;10.54;100.00;100272.19;4940741;28;20199;-78
2021/05/26 04:27:36;;;;;;;15.67;13.97;;;;;;;10.40;100.00;100270.38;4924774;29;20183;-79
2021/05/26 04:30:03;;;;;;;15.93;14.33;;;;;;;10.42;100.00;100269.03;4926045;29;20195;-79
2021/05/26 04:32:35;;;;;;;15.13;13.53;;;;;;;10.48;100.00;100265.19;4949839;28;20655;-79
2021/05/26 04:35:00;;;;;;;15.60;14.00;;;;;;;10.38;100.00;100267.97;4974675;28;20221;-79
2021/05/26 04:37:28;;;;;;;15.63;14.03;;;;;;;10.38;100.00;100264.41;4957794;28;20876;-78
2021/05/26 04:39:56;;;;;;;16.23;14.53;;;;;;;10.28;100.00;100261.78;4959398;28;20290;-78
2021/05/26 04:42:24;;;;;;;17.13;13.90;;;;;;;10.38;100.00;100259.81;4956736;28;20230;-78
2021/05/26 04:44:50;;;;;;;15.83;14.03;;;;;;;10.36;100.00;100261.19;4988307;28;20213;-77
2021/05/26 04:47:15;;;;;;;15.97;13.43;;;;;;;10.37;100.00;100263.63;4955834;28;20673;-77
2021/05/26 04:49:41;;;;;;;14.33;12.93;;;;;;;10.49;100.00;100260.56;4957612;28;20209;-78
2021/05/26 04:52:12;;;;;;;14.47;13.00;;;;;;;10.42;100.00;100263.59;4974080;28;20230;-78
2021/05/26 04:54:40;;;;;;;14.53;12.40;;;;;;;10.40;100.00;100257.63;4957822;28;20293;-78
2021/05/26 04:57:08;;;;;;;14.83;13.27;;;;;;;10.44;100.00;100257.91;4974975;28;20787;-78
2021/05/26 04:59:33;;;;;;;14.70;13.23;;;;;;;10.49;100.00;100258.66;4977084;28;20514;-78
2021/05/26 05:02:00;;;;;;;14.37;12.87;;;;;;;10.55;100.00;100252.09;4958935;28;20222;-78
2021/05/26 05:04:28;;;;;;;15.47;13.03;;;;;;;10.62;100.00;100252.63;4927886;29;20217;-78
2021/05/26 05:06:56;;;;;;;14.77;12.57;;;;;;;10.37;100.00;100253.88;4936456;28;20226;-78
2021/05/26 05:09:25;;;;;;;15.20;13.60;;;;;;;10.37;100.00;100250.03;4976820;28;20692;-78
2021/05/26 05:11:54;;;;;;;13.23;11.87;;;;;;;10.49;100.00;100246.97;4960763;28;20250;-78
2021/05/26 05:14:22;;;;;;;15.10;13.50;;;;;;;10.50;100.00;100243.19;4944491;28;20289;-78
2021/05/26 05:16:47;;;;;;;14.13;12.67;;;;;;;10.52;100.00;100241.81;4958819;28;20225;-78
2021/05/26 05:19:18;;;;;;;13.67;12.37;;;;;;;10.57;100.00;100249.91;4977291;28;20182;-79
2021/05/26 05:21:45;;;;;;;13.73;12.30;;;;;;;10.56;100.00;100253.72;4975337;28;20317;-79
2021/05/26 05:24:11;;;;;;;13.60;12.20;;;;;;;10.67;100.00;100243.59;4959980;28;20238;-78
2021/05/26 05:26:41;;;;;;;15.03;12.43;;;;;;;10.56;100.00;100248.28;4958689;28;20284;-78
2021/05/26 05:29:07;;;;;;;13.13;11.77;;;;;;;10.81;100.00;100245.41;4959678;28;20186;-77
2021/05/26 05:31:35;;;;;;;12.40;11.03;;;;;;;10.74;100.00;100244.91;4955585;28;20600;-79
2021/05/26 05:34:01;;;;;;;11.57;10.37;;;;;;;10.81;100.00;100237.25;4971570;28;20214;-77
2021/05/26 05:36:27;;;;;;;11.87;10.80;;;;;;;10.82;100.00;100236.13;4987468;28;20261;-78
2021/05/26 05:38:57;;;;;;;11.10;10.00;;;;;;;10.80;100.00;100249.19;4973128;28;20190;-78
2021/05/26 05:41:23;;;;;;;12.57;10.23;;;;;;;10.70;100.00;100243.84;4971664;28;20660;-77
2021/05/26 05:43:51;;;;;;;11.20;10.13;;;;;;;10.81;100.00;100229.09;4956589;28;20216;-78
2021/05/26 05:46:17;;;;;;;13.57;10.90;;;;;;;11.02;100.00;100227.81;4940882;28;20226;-78
2021/05/26 05:48:48;;;;;;;11.40;10.30;;;;;;;10.75;100.00;100243.81;4973211;28;20221;-78
2021/05/26 05:51:16;;;;;;;13.73;11.00;;;;;;;10.60;100.00;100243.91;4959702;28;20837;-80
2021/05/26 05:53:41;;;;;;;12.30;10.67;;;;;;;10.70;100.00;100241.13;4940681;28;20214;-77
2021/05/26 05:56:10;;;;;;;11.73;10.53;;;;;;;10.51;100.00;100240.19;4970680;28;20630;-77
2021/05/26 05:58:37;;;;;;;11.87;10.23;;;;;;;10.60;100.00;100241.19;4956438;28;20209;-78
2021/05/26 06:01:03;;;;;;;11.07;9.83;;;;;;;10.57;100.00;100239.06;4989200;28;20210;-79
2021/05/26 06:03:30;;;;;;;11.57;10.13;;;;;;;10.68;100.00;100246.03;4972373;28;20193;-79
2021/05/26 06:05:56;;;;;;;11.57;10.37;;;;;;;10.59;100.00;100245.00;4957019;28;20226;-78
2021/05/26 06:08:26;;;;;;;11.07;9.97;;;;;;;10.56;100.00;100236.63;4973792;28;20185;-78
2021/05/26 06:10:54;;;;;;;10.83;9.77;;;;;;;10.72;100.00;100247.09;4973290;28;20361;-79
2021/05/26 06:13:23;;;;;;;12.37;9.83;;;;;;;10.84;100.00;100244.81;4972799;28;20210;-79
2021/05/26 06:15:50;;;;;;;10.50;9.47;;;;;;;10.79;100.00;100242.16;4956908;28;20226;-79
2021/05/26 06:18:24;;;;;;;10.27;9.27;;;;;;;10.72;100.00;100235.44;4974624;28;20264;-79
2021/05/26 06:20:49;;;;;;;10.43;9.43;;;;;;;10.86;100.00;100237.19;4974357;28;20225;-79
2021/05/26 06:23:15;;;;;;;10.40;9.30;;;;;;;10.90;100.00;100238.28;4976551;28;20215;-79
2021/05/26 06:25:43;;;;;;;9.73;8.83;;;;;;;10.91;100.00;100242.59;4958805;28;20241;-78
2021/05/26 06:28:11;;;;;;;10.27;8.47;;;;;;;10.97;100.00;100230.56;4957597;28;20737;-79
2021/05/26 06:30:37;;;;;;;9.47;8.57;;;;;;;10.79;100.00;100226.66;4957814;28;20225;-79
2021/05/26 06:33:04;;;;;;;9.07;8.07;;;;;;;11.05;100.00;100225.34;4973923;28;20290;-80
2021/05/26 06:35:33;;;;;;;9.57;7.80;;;;;;;11.16;100.00;100221.44;4973183;28;20245;-79
2021/05/26 06:37:58;;;;;;;9.83;8.00;;;;;;;11.06;100.00;100226.16;4991173;28;20190;-78
2021/05/26 06:40:24;;;;;;;8.30;7.03;;;;;;;11.24;100.00;100218.91;4958314;28;20246;-78
2021/05/26 06:42:50;;;;;;;8.40;7.10;;;;;;;11.22;100.00;100229.25;4973012;28;20190;-79
2021/05/26 06:45:18;;;;;;;8.53;6.97;;;;;;;11.28;100.00;100230.84;4973665;28;20209;-78
2021/05/26 06:47:46;;;;;;;9.70;7.30;;;;;;;11.44;100.00;100218.72;4989866;28;20544;-80
2021/05/26 06:50:12;;;;;;;9.10;7.83;;;;;;;11.32;100.00;100226.44;4974857;28;20187;-79
2021/05/26 06:52:38;;;;;;;8.93;7.73;;;;;;;11.32;100.00;100225.66;4980739;28;20190;-79
2021/05/26 06:55:06;;;;;;;8.53;7.10;;;;;;;11.35;100.00;100219.59;4987001;28;20213;-78
2021/05/26 06:57:31;;;;;;;9.93;7.47;;;;;;;11.61;100.00;100229.94;4958448;28;20182;-79
2021/05/26 07:00:00;;;;;;;11.97;7.83;;;;;;;11.51;100.00;100224.63;4960333;28;20715;-79
2021/05/26 07:02:25;;;;;;;9.63;8.00;;;;;;;11.63;100.00;100228.59;4960244;28;20225;-78
2021/05/26 07:04:53;;;;;;;8.23;7.23;;;;;;;11.47;100.00;100223.59;4978067;28;20202;-78
2021/05/26 07:07:19;;;;;;;9.27;7.40;;;;;;;11.50;100.00;100227.63;4959704;28;20238;-79
2021/05/26 07:09:44;;;;;;;10.43;8.20;;;;;;;11.50;100.00;100228.47;4958557;28;20210;-78
2021/05/26 07:12:10;;;;;;;10.33;8.13;;;;;;;11.55;100.00;100231.13;4941924;28;20352;-80
2021/05/26 07:14:39;;;;;;;9.80;8.80;;;;;;;11.58;100.00;100225.91;4942459;29;20227;-79
2021/05/26 07:17:08;;;;;;;9.97;8.33;;;;;;;11.55;100.00;100231.13;4957680;28;20238;-77
2021/05/26 07:19:33;;;;;;;10.73;8.53;;;;;;;11.63;100.00;100222.34;4941750;29;20187;-79
2021/05/26 07:22:01;;;;;;;10.50;8.97;;;;;;;11.83;100.00;100227.53;4941071;28;20732;-79
2021/05/26 07:24:32;;;;;;;11.57;9.47;;;;;;;11.61;100.00;100224.50;4958126;29;20705;-79
2021/05/26 07:26:58;;;;;;;11.50;8.83;;;;;;;11.75;100.00;100220.81;4937670;28;20240;-79
2021/05/26 07:29:26;;;;;;;11.77;9.67;;;;;;;11.86;100.00;100221.50;4941183;29;20190;-78
2021/05/26 07:31:53;;;;;;;12.43;8.73;;;;;;;11.45;100.00;100214.91;4940957;28;20228;-78
2021/05/26 07:34:19;;;;;;;10.60;9.33;;;;;;;11.72;100.00;100215.97;4962936;28;20583;-80
2021/05/26 07:36:45;;;;;;;10.83;9.60;;;;;;;12.43;100.00;100217.44;4980566;28;20218;-79
2021/05/26 07:39:20;;;;;;;10.27;8.90;;;;;;;12.85;100.00;100213.53;4964391;28;20201;-80
2021/05/26 07:41:46;;;;;;;10.37;8.27;;;;;;;13.32;100.00;100205.06;4949226;28;20221;-79
2021/05/26 07:44:12;;;;;;;9.20;8.20;;;;;;;13.40;100.00;100204.38;4974734;28;20202;-79
2021/05/26 07:46:38;;;;;;;9.53;8.00;;;;;;;13.32;100.00;100199.63;4977348;28;20233;-78
2021/05/26 07:49:06;;;;;;;9.00;8.00;;;;;;;12.95;100.00;100215.25;4975671;28;20193;-78
2021/05/26 07:51:41;;;;;;;8.57;7.17;;;;;;;12.85;100.00;100210.78;4959569;28;20234;-78
2021/05/26 07:54:06;;;;;;;9.90;7.43;;;;;;;12.63;100.00;100209.75;4975047;28;20688;-78
2021/05/26 07:56:34;;;;;;;7.63;6.93;;;;;;;12.80;100.00;100215.50;4975354;28;20233;-78
2021/05/26 07:58:59;;;;;;;7.97;7.17;;;;;;;12.59;100.00;100210.66;4991248;28;20210;-77
2021/05/26 08:01:27;;;;;;;8.37;6.33;;;;;;;12.91;100.00;100209.63;4948067;28;20217;-77
2021/05/26 08:03:55;;;;;;;21.53;19.30;;;;;;;13.21;100.00;100209.91;4973447;28;20216;-75
2021/05/26 08:06:20;;;;;;;10.30;9.30;;;;;;;13.08;100.00;100209.88;4971416;28;20241;-75
2021/05/26 08:08:46;;;;;;;10.37;9.37;;;;;;;13.07;100.00;100200.84;4972856;28;20187;-76
2021/05/26 08:11:12;;;;;;;8.00;6.17;;;;;;;13.35;100.00;100205.28;4970872;28;20241;-77
2021/05/26 08:13:40;;;;;;;9.60;7.70;;;;;;;13.72;100.00;100205.09;4973243;28;20706;-80
2021/05/26 08:16:09;;;;;;;8.03;6.27;;;;;;;14.07;100.00;100194.28;5008519;28;20330;-78
2021/05/26 08:18:38;;;;;;;9.07;6.30;;;;;;;14.08;100.00;100187.69;4970651;28;20197;-78
2021/05/26 08:21:03;;;;;;;11.60;6.43;;;;;;;13.64;100.00;100192.94;4983082;28;20229;-79
2021/05/26 08:23:29;;;;;;;6.23;5.60;;;;;;;13.34;100.00;100197.41;4966066;28;20183;-78
2021/05/26 08:25:54;;;;;;;7.53;5.63;;;;;;;13.13;100.00;100190.66;4967824;28;20222;-77
2021/05/26 08:28:20;;;;;;;7.63;6.33;;;;;;;13.54;100.00;100189.63;4960433;28;20190;-78
2021/05/26 08:30:48;;;;;;;6.63;5.37;;;;;;;13.58;100.00;100187.91;4943093;28;20222;-77
2021/05/26 08:33:13;;;;;;;6.57;5.07;;;;;;;13.70;100.00;100186.31;4958194;28;20710;-78
2021/05/26 08:35:39;;;;;;;5.67;5.17;;;;;;;14.16;100.00;100176.88;4992930;28;20218;-78
2021/05/26 08:38:07;;;;;;;6.77;5.30;;;;;;;14.09;96.87;100178.41;4961918;28;20568;-79
2021/05/26 08:40:33;;;;;;;5.60;5.00;;;;;;;13.96;99.92;100180.00;4973921;28;20241;-78
2021/05/26 08:43:03;;;;;;;5.27;4.53;;;;;;;13.84;98.51;100165.25;4972610;28;20191;-79
2021/05/26 08:45:31;;;;;;;5.13;4.73;;;;;;;13.98;99.65;100174.25;4956807;28;20715;-78
2021/05/26 08:47:59;;;;;;;6.97;5.37;;;;;;;14.39;99.49;100173.03;4973421;28;20185;-78
2021/05/26 08:50:25;;;;;;;4.73;4.27;;;;;;;14.60;92.55;100171.47;4975892;28;20194;-77
2021/05/26 08:52:53;;;;;;;4.50;4.10;;;;;;;14.62;91.19;100171.97;4963113;28;20181;-79
2021/05/26 08:55:18;;;;;;;4.77;3.90;;;;;;;14.24;92.50;100166.00;4980362;28;20265;-79
2021/05/26 08:57:47;;;;;;;6.43;3.97;;;;;;;14.21;91.43;100165.00;4984785;28;20195;-78
2021/05/26 09:00:16;;;;;;;4.60;3.77;;;;;;;14.09;92.92;100160.09;4997345;28;20797;-78
2021/05/26 09:02:44;;;;;;;6.00;4.27;;;;;;;13.80;94.65;100153.31;4975000;28;20198;-79
2021/05/26 09:05:30;;;;;;;6.97;3.63;;;;;;;13.64;93.43;100151.22;4973278;28;20217;-77
2021/05/26 09:07:56;;;;;;;4.73;3.30;;;;;;;13.80;92.88;100157.97;4957238;28;20202;-79
2021/05/26 09:10:22;;;;;;;6.53;4.17;;;;;;;13.74;93.81;100154.56;4975259;28;20758;-77
2021/05/26 09:12:48;;;;;;;4.97;3.70;;;;;;;13.75;91.91;100147.97;4973156;28;20281;-79
2021/05/26 09:15:17;;;;;;;5.57;3.60;;;;;;;13.52;93.67;100157.19;4988753;28;20261;-78
2021/05/26 09:17:48;;;;;;;4.30;3.20;;;;;;;13.41;94.55;100154.16;4989057;28;20190;-78
2021/05/26 09:20:22;;;;;;;4.97;3.30;;;;;;;13.15;96.90;100163.94;4986909;28;20186;-77
2021/05/26 09:23:04;;;;;;;4.93;3.30;;;;;;;13.43;94.87;100146.47;4955804;28;20198;-78
2021/05/26 09:25:31;;;;;;;6.90;3.20;;;;;;;13.34;96.48;100148.28;4972639;28;20314;-79
2021/05/26 09:28:22;;;;;;;6.50;3.43;;;;;;;13.49;98.82;100155.06;4975560;28;20194;-80
2021/05/26 09:30:54;;;;;;;3.93;3.40;;;;;;;13.29;96.08;100149.19;4973514;28;20218;-78
2021/05/26 09:33:31;;;;;;;4.33;3.37;;;;;;;13.18;97.70;100153.22;4956219;28;20723;-77
2021/05/26 09:36:24;;;;;;;6.03;3.83;;;;;;;13.03;100.00;100160.88;4985071;28;20221;-79
2021/05/26 09:38:53;;;;;;;3.97;3.50;;;;;;;13.04;100.00;100148.88;4980502;28;20317;-79
2021/05/26 09:41:30;;;;;;;5.20;3.90;;;;;;;13.09;100.00;100146.88;4994084;28;20320;-77
2021/05/26 09:44:00;;;;;;;5.07;2.97;;;;;;;13.01;98.92;100149.47;4981256;28;20249;-78
2021/05/26 09:46:26;;;;;;;4.00;3.20;;;;;;;13.23;100.00;100141.41;4957169;28;20284;-78
2021/05/26 09:49:04;;;;;;;4.10;3.57;;;;;;;13.18;98.83;100134.13;4970367;28;20186;-79
2021/05/26 09:51:31;;;;;;;4.33;3.00;;;;;;;13.21;95.76;100124.56;4976348;28;20234;-78
2021/05/26 09:54:13;;;;;;;3.30;3.00;;;;;;;13.50;94.06;100134.06;4967542;28;20229;-79
2021/05/26 09:56:44;;;;;;;3.93;2.87;;;;;;;13.66;93.31;100138.06;4971516;28;20249;-79
2021/05/26 09:59:12;;;;;;;4.50;2.90;;;;;;;13.85;91.30;100124.00;4991071;28;20193;-80
2021/05/26 10:01:38;;;;;;;3.00;2.50;;;;;;;14.17;90.48;100139.44;4990390;28;20218;-79
2021/05/26 10:04:07;;;;;;;3.90;2.60;;;;;;;14.04;86.82;100137.53;4988883;28;20208;-80
2021/05/26 10:06:34;;;;;;;3.67;2.60;;;;;;;14.04;87.68;100132.06;4970754;28;20243;-79
2021/05/26 10:09:20;;;;;;;5.13;2.70;;;;;;;14.15;85.42;100133.47;4966773;28;20197;-78
2021/05/26 10:12:17;;;;;;;5.40;2.83;;;;;;;14.45;84.62;100139.00;4954968;28;20288;-80
2021/05/26 10:14:43;;;;;;;3.33;3.03;;;;;;;14.58;82.17;100122.56;4959770;28;20217;-78
2021/05/26 10:17:17;;;;;;;4.10;2.97;;;;;;;14.80;83.11;100119.81;4928304;28;20214;-79
2021/05/26 10:19:43;;;;;;;6.87;3.17;;;;;;;15.04;78.75;100116.41;4960733;28;20299;-79
2021/05/26 10:22:13;;;;;;;3.87;2.97;;;;;;;15.09;79.69;100113.56;4942427;28;20234;-79
2021/05/26 10:24:39;;;;;;;5.23;3.60;;;;;;;15.37;79.74;100119.66;4944581;28;20209;-77
2021/05/26 10:27:06;;;;;;;4.00;3.47;;;;;;;14.89;82.78;100118.75;4940784;28;20221;-78
2021/05/26 10:29:35;;;;;;;5.25;3.22;;;;;;;15.13;82.36;100108.25;4927070;28;20240;-79
2021/05/26 10:32:18;;;;;;;3.50;3.20;;;;;;;15.89;81.79;100109.31;4958916;28;20644;-78
2021/05/26 10:34:46;;;;;;;5.23;3.53;;;;;;;16.06;76.73;100112.91;4962445;28;20234;-78
2021/05/26 10:37:32;;;;;;;4.20;3.45;;;;;;;15.75;76.19;100116.88;4978767;28;20229;-78
2021/05/26 10:39:59;;;;;;;4.85;3.60;;;;;;;16.09;74.53;100100.50;4964398;28;20200;-78
2021/05/26 10:42:33;;;;;;;4.45;3.40;;;;;;;16.28;74.37;100099.06;4978340;28;20222;-78
2021/05/26 10:45:03;;;;;;;5.10;3.10;;;;;;;15.42;74.45;100101.16;4948715;28;20229;-79
2021/05/26 10:47:44;;;;;;;4.32;3.03;;;;;;;14.94;80.01;100106.88;4949278;28;20234;-79
2021/05/26 10:50:44;;;;;;;4.03;3.37;;;;;;;14.82;74.89;100095.72;4962355;28;20201;-77
2021/05/26 10:53:12;;;;;;;4.13;3.10;;;;;;;14.36;78.30;100095.25;4976596;28;20213;-78
2021/05/26 10:55:38;;;;;;;4.80;3.27;;;;;;;14.36;80.60;100100.72;4964253;28;20233;-80
2021/05/26 10:58:30;;;;;;;5.20;3.10;;;;;;;14.46;78.96;100097.72;4966264;28;20201;-79
2021/05/26 11:00:56;;;;;;;3.87;2.87;;;;;;;14.78;76.67;100097.44;4982095;28;20254;-80
2021/05/26 11:03:43;;;;;;;5.10;2.93;;;;;;;14.93;75.69;100086.13;4982502;28;20187;-80
2021/05/26 11:06:18;;;;;;;4.97;2.80;;;;;;;14.88;75.05;100083.50;4965019;28;20346;-79
2021/05/26 11:08:51;;;;;;;3.90;2.93;;;;;;;14.41;76.47;100095.13;4980391;28;20771;-79
2021/05/26 11:11:24;;;;;;;5.47;2.93;;;;;;;14.99;80.06;100095.78;4980935;28;20373;-79
2021/05/26 11:13:59;;;;;;;3.40;2.47;;;;;;;15.40;71.89;100089.69;4978324;28;20856;-78
2021/05/26 11:16:44;;;;;;;4.10;2.80;;;;;;;15.86;73.25;100088.06;4978960;28;20225;-79
2021/05/26 11:19:16;;;;;;;6.00;2.40;;;;;;;15.86;65.93;100088.88;4981178;28;20644;-79
2021/05/26 11:21:52;;;;;;;3.53;2.25;;;;;;;16.14;69.05;100086.63;4981247;28;20222;-79
2021/05/26 11:24:21;;;;;;;4.03;2.42;;;;;;;15.98;66.56;100099.97;4983176;28;20198;-80
2021/05/26 11:26:49;;;;;;;3.42;2.55;;;;;;;15.80;67.25;100090.16;4967252;28;20261;-79
2021/05/26 11:29:26;;;;;;;4.65;2.80;;;;;;;15.53;66.82;100091.50;4981897;28;20269;-79
2021/05/26 11:32:05;;;;;;;4.45;2.45;;;;;;;16.40;69.64;100091.00;4984493;28;20225;-83
2021/05/26 11:34:31;;;;;;;4.57;2.45;;;;;;;16.99;66.02;100078.75;4985467;28;20825;-81
2021/05/26 11:36:57;;;;;;;6.63;2.90;;;;;;;16.92;65.57;100072.16;4969691;28;20234;-79
2021/05/26 11:39:30;;;;;;;3.67;2.50;;;;;;;16.95;63.59;100074.28;4983026;28;20190;-78
2021/05/26 11:42:26;;;;;;;3.15;2.25;;;;;;;16.80;63.88;100072.06;4977555;28;20651;-78
2021/05/26 11:45:00;;;;;;;4.20;2.25;;;;;;;16.87;64.84;100072.38;4962099;28;20761;-79
2021/05/26 11:47:31;;;;;;;3.58;2.25;;;;;;;17.18;64.81;100070.16;4964748;28;20244;-78
2021/05/26 11:50:00;;;;;;;4.05;2.60;;;;;;;17.32;62.53;100066.06;4963089;28;20195;-78
2021/05/26 11:52:30;;;;;;;2.88;2.30;;;;;;;17.29;61.71;100080.47;4963595;28;20246;-79
2021/05/26 11:55:04;;;;;;;3.53;1.92;;;;;;;16.96;62.09;100073.16;4980663;28;20226;-79
2021/05/26 11:57:39;;;;;;;4.97;2.13;;;;;;;17.41;62.54;100059.41;4983829;28;20612;-80